ALAS78 MPMG-MPCM
Flight info
| Callsign | ALAS78 |
|---|---|
| Flight time | N/A |
| Altitude | 4000 |
| Route | TBG DAMAX |
| Aircraft | DA42/L-SG/C |
Departure
| Time | 2026-04-26 03:18 |
|---|---|
| Airport | Marcos A. Gelabert International Airport (MPMG) |
Arrival
| Time | N/A |
|---|---|
| Airport | Captain Krish E. Persaud Airport (MPCM) |
| Time | Latitude | Longitude | Altitude | Speed | Heading |
|---|---|---|---|---|---|
| 2026-04-26 03:10 | 8.96878 | -79.55815 | 6 ft | 0 kts | 73° |
| 2026-04-26 03:14 | 8.96878 | -79.55803 | 29 ft | 0 kts | 130° |
| 2026-04-26 03:15 | 8.96838 | -79.55807 | 29 ft | 10 kts | 187° |
| 2026-04-26 03:15 | 8.96773 | -79.55813 | 29 ft | 9 kts | 188° |
| 2026-04-26 03:15 | 8.96708 | -79.55817 | 29 ft | 11 kts | 184° |
| 2026-04-26 03:15 | 8.96637 | -79.55823 | 29 ft | 10 kts | 184° |
| 2026-04-26 03:16 | 8.96613 | -79.55825 | 29 ft | 10 kts | 184° |
| 2026-04-26 03:16 | 8.96557 | -79.55819 | 29 ft | 9 kts | 141° |
| 2026-04-26 03:16 | 8.96534 | -79.55770 | 29 ft | 7 kts | 99° |
| 2026-04-26 03:17 | 8.96536 | -79.55721 | 29 ft | 7 kts | 82° |
| 2026-04-26 03:17 | 8.96539 | -79.55672 | 28 ft | 7 kts | 90° |
| 2026-04-26 03:17 | 8.96546 | -79.55627 | 28 ft | 5 kts | 4° |
| 2026-04-26 03:17 | 8.96559 | -79.55626 | 28 ft | 13 kts | 7° |
| 2026-04-26 03:18 | 8.96858 | -79.55599 | 33 ft | 69 kts | 4° |
| 2026-04-26 03:18 | 8.97395 | -79.55558 | 194 ft | 87 kts | 3° |
| 2026-04-26 03:18 | 8.98011 | -79.55514 | 530 ft | 90 kts | 4° |
| 2026-04-26 03:18 | 8.98692 | -79.55467 | 788 ft | 102 kts | 3° |
| 2026-04-26 03:19 | 8.99395 | -79.55428 | 1131 ft | 95 kts | 2° |
| 2026-04-26 03:19 | 9.00100 | -79.55453 | 1299 ft | 109 kts | 349° |
| 2026-04-26 03:19 | 9.00795 | -79.55787 | 1494 ft | 115 kts | 313° |
| 2026-04-26 03:19 | 9.01105 | -79.56522 | 1779 ft | 112 kts | 279° |
| 2026-04-26 03:20 | 9.01219 | -79.57260 | 2186 ft | 96 kts | 276° |
| 2026-04-26 03:20 | 9.01263 | -79.57911 | 2516 ft | 93 kts | 267° |
| 2026-04-26 03:20 | 9.01165 | -79.58687 | 2515 ft | 122 kts | 258° |
| 2026-04-26 03:20 | 9.00993 | -79.59564 | 2529 ft | 138 kts | 258° |
| 2026-04-26 03:21 | 9.00803 | -79.60529 | 2591 ft | 142 kts | 257° |
| 2026-04-26 03:21 | 9.00741 | -79.60832 | 2641 ft | 142 kts | 257° |
| 2026-04-26 03:23 | 9.00582 | -79.61709 | 2649 ft | 134 kts | 256° |
| 2026-04-26 03:23 | 9.00407 | -79.62599 | 2600 ft | 125 kts | 253° |
| 2026-04-26 03:24 | 9.00242 | -79.63451 | 2526 ft | 125 kts | 253° |
| 2026-04-26 03:24 | 9.00051 | -79.64322 | 2399 ft | 125 kts | 249° |
| 2026-04-26 03:24 | 8.99799 | -79.65176 | 2262 ft | 127 kts | 243° |
| 2026-04-26 03:24 | 8.99510 | -79.65984 | 2223 ft | 122 kts | 244° |
| 2026-04-26 03:25 | 8.99338 | -79.66514 | 2205 ft | 120 kts | 240° |
| 2026-04-26 03:25 | 8.98536 | -79.67109 | 2250 ft | 108 kts | 179° |
| 2026-04-26 03:25 | 8.97869 | -79.66895 | 2336 ft | 101 kts | 128° |
| 2026-04-26 03:25 | 8.97633 | -79.66253 | 2359 ft | 103 kts | 90° |
| 2026-04-26 03:26 | 8.97549 | -79.65519 | 2300 ft | 106 kts | 87° |
| 2026-04-26 03:26 | 8.97512 | -79.64776 | 2203 ft | 110 kts | 82° |
| 2026-04-26 03:26 | 8.97498 | -79.64233 | 2061 ft | 118 kts | 82° |
| 2026-04-26 03:26 | 8.97489 | -79.63398 | 1886 ft | 118 kts | 83° |
| 2026-04-26 03:27 | 8.97476 | -79.62571 | 1709 ft | 120 kts | 84° |
| 2026-04-26 03:27 | 8.97349 | -79.61750 | 1594 ft | 116 kts | 100° |
| 2026-04-26 03:27 | 8.97064 | -79.60989 | 1473 ft | 115 kts | 109° |
| 2026-04-26 03:27 | 8.96593 | -79.60313 | 1270 ft | 122 kts | 129° |
| 2026-04-26 03:28 | 8.95848 | -79.59880 | 996 ft | 127 kts | 169° |
| 2026-04-26 03:28 | 8.94983 | -79.59963 | 803 ft | 121 kts | 183° |
| 2026-04-26 03:28 | 8.94186 | -79.59965 | 485 ft | 109 kts | 171° |
| 2026-04-26 03:28 | 8.93507 | -79.59967 | 309 ft | 98 kts | 176° |
| 2026-04-26 03:29 | 8.92817 | -79.59963 | 94 ft | 95 kts | 176° |
| 2026-04-26 03:29 | 8.92249 | -79.59967 | 49 ft | 70 kts | 183° |
| 2026-04-26 03:29 | 8.91831 | -79.59961 | 43 ft | 51 kts | 178° |
| 2026-04-26 03:29 | 8.91674 | -79.59963 | 42 ft | 8 kts | 188° |
| 2026-04-26 03:30 | 8.91668 | -79.59964 | 42 ft | 0 kts | 186° |
| 2026-04-26 03:31 | 8.91615 | -79.59963 | 42 ft | 32 kts | 178° |
| 2026-04-26 03:32 | 8.91194 | -79.59960 | 65 ft | 81 kts | 179° |
| 2026-04-26 03:32 | 8.90608 | -79.59965 | 390 ft | 86 kts | 180° |
| 2026-04-26 03:32 | 8.89972 | -79.59966 | 724 ft | 93 kts | 178° |
| 2026-04-26 03:32 | 8.89345 | -79.59915 | 1118 ft | 88 kts | 173° |
| 2026-04-26 03:33 | 8.88728 | -79.59818 | 1434 ft | 93 kts | 173° |
| 2026-04-26 03:33 | 8.88107 | -79.59994 | 1773 ft | 96 kts | 221° |
| 2026-04-26 03:33 | 8.87870 | -79.60610 | 2181 ft | 91 kts | 260° |
| 2026-04-26 03:33 | 8.87806 | -79.61224 | 2555 ft | 90 kts | 264° |
| 2026-04-26 03:34 | 8.87779 | -79.61827 | 3001 ft | 73 kts | 268° |
| 2026-04-26 03:34 | 8.87791 | -79.62445 | 3105 ft | 107 kts | 269° |
| 2026-04-26 03:34 | 8.87812 | -79.63271 | 3159 ft | 133 kts | 272° |
| 2026-04-26 03:34 | 8.87849 | -79.64237 | 3348 ft | 137 kts | 271° |
| 2026-04-26 03:35 | 8.87885 | -79.65254 | 3359 ft | 153 kts | 271° |
| 2026-04-26 03:35 | 8.87921 | -79.66370 | 3308 ft | 163 kts | 271° |
| 2026-04-26 03:35 | 8.87957 | -79.67531 | 3262 ft | 166 kts | 271° |
| 2026-04-26 03:35 | 8.87994 | -79.68699 | 3217 ft | 166 kts | 271° |
| 2026-04-26 03:36 | 8.88012 | -79.69763 | 3653 ft | 138 kts | 270° |
| 2026-04-26 03:36 | 8.87998 | -79.70794 | 3605 ft | 153 kts | 269° |
| 2026-04-26 03:36 | 8.87978 | -79.71904 | 3556 ft | 161 kts | 269° |
| 2026-04-26 03:36 | 8.87959 | -79.73034 | 3511 ft | 164 kts | 269° |
| 2026-04-26 03:37 | 8.87939 | -79.74195 | 3464 ft | 166 kts | 268° |
| 2026-04-26 03:37 | 8.87918 | -79.75361 | 3422 ft | 167 kts | 268° |
| 2026-04-26 03:37 | 8.87897 | -79.76537 | 3374 ft | 167 kts | 268° |
| 2026-04-26 03:37 | 8.87876 | -79.77714 | 3328 ft | 167 kts | 269° |
| 2026-04-26 03:38 | 8.87856 | -79.78887 | 3282 ft | 167 kts | 268° |
| 2026-04-26 03:38 | 8.87813 | -79.80060 | 3237 ft | 165 kts | 263° |
| 2026-04-26 03:38 | 8.87322 | -79.81072 | 3163 ft | 163 kts | 224° |
| 2026-04-26 03:38 | 8.86296 | -79.81406 | 3319 ft | 140 kts | 168° |
| 2026-04-26 03:39 | 8.85548 | -79.80911 | 3607 ft | 137 kts | 124° |
| 2026-04-26 03:39 | 8.85430 | -79.80008 | 3842 ft | 132 kts | 76° |
| 2026-04-26 03:39 | 8.85667 | -79.79085 | 3913 ft | 140 kts | 78° |
| 2026-04-26 03:39 | 8.85654 | -79.78078 | 3931 ft | 148 kts | 100° |
| 2026-04-26 03:40 | 8.85416 | -79.77055 | 3952 ft | 151 kts | 105° |
| 2026-04-26 03:40 | 8.85097 | -79.76037 | 3982 ft | 153 kts | 108° |
| 2026-04-26 03:40 | 8.84748 | -79.75015 | 4009 ft | 154 kts | 109° |
| 2026-04-26 03:40 | 8.84390 | -79.73991 | 4031 ft | 155 kts | 109° |
| 2026-04-26 03:41 | 8.84029 | -79.72967 | 4057 ft | 155 kts | 109° |
| 2026-04-26 03:41 | 8.83669 | -79.71941 | 4081 ft | 155 kts | 109° |
| 2026-04-26 03:41 | 8.83371 | -79.70936 | 4050 ft | 141 kts | 110° |
| 2026-04-26 03:41 | 8.83086 | -79.70001 | 3846 ft | 138 kts | 111° |
| 2026-04-26 03:42 | 8.82788 | -79.69070 | 3671 ft | 145 kts | 107° |
| 2026-04-26 03:42 | 8.82620 | -79.68246 | 4248 ft | 114 kts | 99° |
| 2026-04-26 03:42 | 8.82470 | -79.67371 | 4236 ft | 128 kts | 104° |
| 2026-04-26 03:42 | 8.82243 | -79.66511 | 4127 ft | 127 kts | 96° |
| 2026-04-26 03:43 | 8.82077 | -79.65629 | 3904 ft | 131 kts | 92° |
| 2026-04-26 03:43 | 8.82003 | -79.64716 | 3763 ft | 127 kts | 88° |
| 2026-04-26 03:43 | 8.81953 | -79.64071 | 3869 ft | 109 kts | 89° |
| 2026-04-26 03:43 | 8.81827 | -79.63303 | 3882 ft | 105 kts | 89° |
| 2026-04-26 03:44 | 8.81841 | -79.62551 | 3823 ft | 112 kts | 82° |
| 2026-04-26 03:44 | 8.81868 | -79.61703 | 3906 ft | 124 kts | 90° |
| 2026-04-26 03:44 | 8.81749 | -79.60778 | 3967 ft | 133 kts | 109° |
| 2026-04-26 03:44 | 8.81187 | -79.60233 | 4364 ft | 120 kts | 165° |
| 2026-04-26 03:45 | 8.80372 | -79.60567 | 4403 ft | 132 kts | 234° |
| 2026-04-26 03:45 | 8.80393 | -79.61422 | 4694 ft | 129 kts | 269° |
| 2026-04-26 03:45 | 8.80012 | -79.62261 | 4613 ft | 151 kts | 232° |
| 2026-04-26 03:45 | 8.79398 | -79.63148 | 4469 ft | 148 kts | 227° |
| 2026-04-26 03:46 | 8.78831 | -79.63881 | 4605 ft | 122 kts | 224° |
| 2026-04-26 03:46 | 8.78344 | -79.64516 | 4708 ft | 107 kts | 225° |
| 2026-04-26 03:46 | 8.77902 | -79.65107 | 4746 ft | 106 kts | 228° |
| 2026-04-26 03:47 | 8.76844 | -79.66104 | 4689 ft | 105 kts | 163° |
| 2026-04-26 03:47 | 8.76417 | -79.65694 | 4837 ft | 88 kts | 79° |
| 2026-04-26 03:47 | 8.76679 | -79.65146 | 4784 ft | 98 kts | 30° |
| 2026-04-26 03:47 | 8.77280 | -79.64732 | 4644 ft | 110 kts | 22° |
| 2026-04-26 03:48 | 8.77939 | -79.64337 | 4571 ft | 109 kts | 18° |
| 2026-04-26 03:48 | 8.78610 | -79.63975 | 4454 ft | 112 kts | 19° |
| 2026-04-26 03:48 | 8.79273 | -79.63578 | 4379 ft | 110 kts | 18° |
| 2026-04-26 03:48 | 8.80049 | -79.63181 | 4330 ft | 136 kts | 29° |
| 2026-04-26 03:49 | 8.80293 | -79.63046 | 4373 ft | 138 kts | 30° |
| 2026-04-26 03:50 | 8.80321 | -79.63031 | 4385 ft | 137 kts | 29° |
| 2026-04-26 03:50 | 8.81209 | -79.62555 | 4382 ft | 152 kts | 28° |
| 2026-04-26 03:51 | 8.82157 | -79.62048 | 4355 ft | 159 kts | 28° |
| 2026-04-26 03:51 | 8.83151 | -79.61515 | 4340 ft | 163 kts | 29° |
| 2026-04-26 03:51 | 8.84161 | -79.60975 | 4318 ft | 164 kts | 28° |
| 2026-04-26 03:51 | 8.85183 | -79.60456 | 4310 ft | 165 kts | 26° |
| 2026-04-26 03:52 | 8.86213 | -79.59974 | 4346 ft | 158 kts | 20° |
| 2026-04-26 03:52 | 8.87220 | -79.59926 | 4347 ft | 122 kts | 359° |
| 2026-04-26 03:52 | 8.87928 | -79.59952 | 4151 ft | 96 kts | 357° |
| 2026-04-26 03:52 | 8.88807 | -79.60032 | 2573 ft | 154 kts | 340° |
| 2026-04-26 03:53 | 8.89724 | -79.59985 | 1287 ft | 132 kts | 349° |
| 2026-04-26 03:53 | 8.90687 | -79.59973 | 62 ft | 143 kts | 2° |
| 2026-04-26 03:53 | 8.91458 | -79.59961 | 49 ft | 87 kts | 360° |
| 2026-04-26 03:53 | 8.91973 | -79.59961 | 44 ft | 63 kts | 360° |
| 2026-04-26 03:54 | 8.92354 | -79.59959 | 44 ft | 36 kts | 1° |
| 2026-04-26 03:54 | 8.92473 | -79.59957 | 44 ft | 15 kts | 1° |
| 2026-04-26 03:54 | 8.92571 | -79.59955 | 45 ft | 13 kts | 1° |
| 2026-04-26 03:54 | 8.92646 | -79.59953 | 45 ft | 12 kts | 1° |